sensor_id;sensor_type;location;lat;lon;timestamp;P1;durP1;ratioP1;P2;durP2;ratioP2
51467;SDS011;37545;45.302;-122.946;2023-02-15T00:01:08;2.65;;;1.13;;
51467;SDS011;37545;45.302;-122.946;2023-02-15T00:03:38;5.00;;;0.90;;
51467;SDS011;37545;45.302;-122.946;2023-02-15T00:06:07;0.85;;;0.43;;
51467;SDS011;37545;45.302;-122.946;2023-02-15T00:08:35;3.90;;;0.73;;
51467;SDS011;37545;45.302;-122.946;2023-02-15T00:11:05;0.68;;;0.50;;
51467;SDS011;37545;45.302;-122.946;2023-02-15T00:13:34;3.17;;;0.82;;
51467;SDS011;37545;45.302;-122.946;2023-02-15T00:16:05;1.30;;;0.73;;
51467;SDS011;37545;45.302;-122.946;2023-02-15T00:18:37;2.75;;;0.43;;
51467;SDS011;37545;45.302;-122.946;2023-02-15T00:21:06;1.75;;;0.45;;
51467;SDS011;37545;45.302;-122.946;2023-02-15T00:23:37;1.48;;;1.02;;
51467;SDS011;37545;45.302;-122.946;2023-02-15T00:26:06;0.98;;;0.68;;
51467;SDS011;37545;45.302;-122.946;2023-02-15T00:28:37;1.60;;;0.70;;
51467;SDS011;37545;45.302;-122.946;2023-02-15T00:31:06;0.50;;;0.50;;
51467;SDS011;37545;45.302;-122.946;2023-02-15T00:33:37;1.90;;;0.50;;
51467;SDS011;37545;45.302;-122.946;2023-02-15T00:36:07;1.45;;;0.75;;
51467;SDS011;37545;45.302;-122.946;2023-02-15T00:38:37;0.70;;;0.40;;
51467;SDS011;37545;45.302;-122.946;2023-02-15T00:41:06;2.88;;;0.60;;
51467;SDS011;37545;45.302;-122.946;2023-02-15T00:43:36;3.67;;;0.80;;
51467;SDS011;37545;45.302;-122.946;2023-02-15T00:46:05;1.42;;;0.57;;
51467;SDS011;37545;45.302;-122.946;2023-02-15T00:48:35;1.27;;;0.75;;
51467;SDS011;37545;45.302;-122.946;2023-02-15T00:51:03;1.65;;;0.60;;
51467;SDS011;37545;45.302;-122.946;2023-02-15T00:53:32;6.32;;;0.73;;
51467;SDS011;37545;45.302;-122.946;2023-02-15T00:56:01;3.25;;;0.82;;
51467;SDS011;37545;45.302;-122.946;2023-02-15T00:58:29;2.03;;;0.55;;
51467;SDS011;37545;45.302;-122.946;2023-02-15T01:01:02;5.72;;;1.27;;
51467;SDS011;37545;45.302;-122.946;2023-02-15T01:03:32;1.33;;;0.60;;
51467;SDS011;37545;45.302;-122.946;2023-02-15T01:06:03;1.23;;;0.68;;
51467;SDS011;37545;45.302;-122.946;2023-02-15T01:08:32;1.55;;;0.55;;
51467;SDS011;37545;45.302;-122.946;2023-02-15T01:11:08;2.92;;;0.57;;
51467;SDS011;37545;45.302;-122.946;2023-02-15T01:13:38;2.00;;;0.88;;
51467;SDS011;37545;45.302;-122.946;2023-02-15T01:16:16;1.75;;;1.10;;
51467;SDS011;37545;45.302;-122.946;2023-02-15T01:18:47;5.05;;;0.80;;
51467;SDS011;37545;45.302;-122.946;2023-02-15T01:21:17;3.38;;;1.20;;
51467;SDS011;37545;45.302;-122.946;2023-02-15T01:23:48;2.97;;;0.75;;
51467;SDS011;37545;45.302;-122.946;2023-02-15T01:26:17;1.65;;;0.68;;
51467;SDS011;37545;45.302;-122.946;2023-02-15T01:28:45;2.05;;;0.63;;
51467;SDS011;37545;45.302;-122.946;2023-02-15T01:31:15;2.85;;;0.73;;
51467;SDS011;37545;45.302;-122.946;2023-02-15T01:33:46;2.70;;;0.95;;
51467;SDS011;37545;45.302;-122.946;2023-02-15T01:36:16;1.35;;;0.75;;
51467;SDS011;37545;45.302;-122.946;2023-02-15T01:38:44;3.55;;;1.05;;
51467;SDS011;37545;45.302;-122.946;2023-02-15T01:41:13;3.35;;;0.90;;
51467;SDS011;37545;45.302;-122.946;2023-02-15T01:43:50;4.25;;;1.33;;
51467;SDS011;37545;45.302;-122.946;2023-02-15T01:46:21;2.72;;;1.02;;
51467;SDS011;37545;45.302;-122.946;2023-02-15T01:48:54;2.42;;;0.82;;
51467;SDS011;37545;45.302;-122.946;2023-02-15T01:51:28;3.83;;;1.05;;
51467;SDS011;37545;45.302;-122.946;2023-02-15T01:54:01;3.22;;;0.70;;
51467;SDS011;37545;45.302;-122.946;2023-02-15T01:56:33;1.52;;;0.70;;
51467;SDS011;37545;45.302;-122.946;2023-02-15T01:59:05;1.38;;;0.70;;
51467;SDS011;37545;45.302;-122.946;2023-02-15T02:01:42;3.75;;;0.93;;
51467;SDS011;37545;45.302;-122.946;2023-02-15T02:04:21;3.20;;;0.70;;
51467;SDS011;37545;45.302;-122.946;2023-02-15T02:06:57;2.72;;;0.65;;
51467;SDS011;37545;45.302;-122.946;2023-02-15T02:09:26;1.65;;;0.73;;
51467;SDS011;37545;45.302;-122.946;2023-02-15T02:11:56;1.77;;;0.50;;
51467;SDS011;37545;45.302;-122.946;2023-02-15T02:14:25;1.05;;;0.60;;
51467;SDS011;37545;45.302;-122.946;2023-02-15T02:16:56;1.17;;;0.90;;
51467;SDS011;37545;45.302;-122.946;2023-02-15T02:29:02;2.30;;;0.77;;
51467;SDS011;37545;45.302;-122.946;2023-02-15T02:32:01;1.40;;;0.70;;
51467;SDS011;37545;45.302;-122.946;2023-02-15T02:34:50;1.08;;;0.70;;
51467;SDS011;37545;45.302;-122.946;2023-02-15T02:37:23;1.80;;;0.93;;
51467;SDS011;37545;45.302;-122.946;2023-02-15T02:39:58;3.08;;;0.93;;
51467;SDS011;37545;45.302;-122.946;2023-02-15T02:42:38;1.38;;;0.82;;
51467;SDS011;37545;45.302;-122.946;2023-02-15T02:45:09;2.80;;;0.80;;
51467;SDS011;37545;45.302;-122.946;2023-02-15T02:47:44;2.70;;;1.40;;
51467;SDS011;37545;45.302;-122.946;2023-02-15T02:50:21;3.22;;;1.15;;
51467;SDS011;37545;45.302;-122.946;2023-02-15T02:52:52;5.30;;;1.65;;
51467;SDS011;37545;45.302;-122.946;2023-02-15T02:55:21;5.03;;;1.50;;
51467;SDS011;37545;45.302;-122.946;2023-02-15T02:57:53;1.50;;;0.98;;
51467;SDS011;37545;45.302;-122.946;2023-02-15T03:00:28;5.55;;;1.40;;
51467;SDS011;37545;45.302;-122.946;2023-02-15T03:03:02;3.60;;;1.85;;
51467;SDS011;37545;45.302;-122.946;2023-02-15T03:05:37;2.15;;;1.20;;
51467;SDS011;37545;45.302;-122.946;2023-02-15T03:08:11;3.47;;;1.30;;
51467;SDS011;37545;45.302;-122.946;2023-02-15T03:10:47;4.38;;;1.23;;
51467;SDS011;37545;45.302;-122.946;2023-02-15T03:13:18;1.47;;;1.00;;
51467;SDS011;37545;45.302;-122.946;2023-02-15T03:15:48;8.13;;;1.50;;
51467;SDS011;37545;45.302;-122.946;2023-02-15T03:18:37;5.53;;;1.48;;
51467;SDS011;37545;45.302;-122.946;2023-02-15T03:21:20;4.90;;;1.15;;
51467;SDS011;37545;45.302;-122.946;2023-02-15T03:23:52;2.65;;;1.60;;
51467;SDS011;37545;45.302;-122.946;2023-02-15T03:26:26;2.60;;;1.30;;
51467;SDS011;37545;45.302;-122.946;2023-02-15T03:28:57;2.10;;;0.95;;
51467;SDS011;37545;45.302;-122.946;2023-02-15T03:31:29;5.35;;;1.38;;
51467;SDS011;37545;45.302;-122.946;2023-02-15T03:34:03;2.03;;;1.30;;
51467;SDS011;37545;45.302;-122.946;2023-02-15T03:36:36;2.25;;;1.45;;
51467;SDS011;37545;45.302;-122.946;2023-02-15T03:39:13;2.83;;;1.35;;
51467;SDS011;37545;45.302;-122.946;2023-02-15T03:41:50;3.65;;;1.55;;
51467;SDS011;37545;45.302;-122.946;2023-02-15T03:44:26;4.68;;;1.80;;
51467;SDS011;37545;45.302;-122.946;2023-02-15T03:46:58;4.40;;;1.52;;
51467;SDS011;37545;45.302;-122.946;2023-02-15T03:49:40;3.35;;;1.35;;
51467;SDS011;37545;45.302;-122.946;2023-02-15T03:52:13;2.83;;;1.30;;
51467;SDS011;37545;45.302;-122.946;2023-02-15T03:54:44;4.40;;;1.20;;
51467;SDS011;37545;45.302;-122.946;2023-02-15T03:57:14;3.83;;;1.52;;
51467;SDS011;37545;45.302;-122.946;2023-02-15T04:00:14;7.78;;;2.35;;
51467;SDS011;37545;45.302;-122.946;2023-02-15T04:03:06;6.50;;;1.70;;
51467;SDS011;37545;45.302;-122.946;2023-02-15T04:05:45;3.33;;;1.20;;
51467;SDS011;37545;45.302;-122.946;2023-02-15T04:08:15;2.67;;;1.35;;
51467;SDS011;37545;45.302;-122.946;2023-02-15T04:10:44;1.95;;;1.67;;
51467;SDS011;37545;45.302;-122.946;2023-02-15T04:13:22;6.07;;;1.88;;
51467;SDS011;37545;45.302;-122.946;2023-02-15T04:15:53;2.38;;;1.40;;
51467;SDS011;37545;45.302;-122.946;2023-02-15T04:18:30;5.90;;;1.73;;
51467;SDS011;37545;45.302;-122.946;2023-02-15T04:21:18;3.05;;;1.70;;
51467;SDS011;37545;45.302;-122.946;2023-02-15T04:24:06;3.70;;;1.40;;
51467;SDS011;37545;45.302;-122.946;2023-02-15T04:26:51;3.53;;;1.58;;
51467;SDS011;37545;45.302;-122.946;2023-02-15T04:29:21;6.38;;;1.95;;
51467;SDS011;37545;45.302;-122.946;2023-02-15T04:31:50;2.05;;;1.60;;
51467;SDS011;37545;45.302;-122.946;2023-02-15T04:34:19;2.63;;;1.38;;
51467;SDS011;37545;45.302;-122.946;2023-02-15T04:36:48;4.90;;;1.67;;
51467;SDS011;37545;45.302;-122.946;2023-02-15T04:39:19;1.77;;;1.40;;
51467;SDS011;37545;45.302;-122.946;2023-02-15T04:41:47;1.92;;;1.15;;
51467;SDS011;37545;45.302;-122.946;2023-02-15T04:44:16;2.20;;;1.20;;
51467;SDS011;37545;45.302;-122.946;2023-02-15T04:46:44;2.28;;;1.10;;
51467;SDS011;37545;45.302;-122.946;2023-02-15T04:49:13;3.47;;;1.80;;
51467;SDS011;37545;45.302;-122.946;2023-02-15T04:51:42;2.65;;;1.58;;
51467;SDS011;37545;45.302;-122.946;2023-02-15T04:54:11;5.20;;;1.33;;
51467;SDS011;37545;45.302;-122.946;2023-02-15T04:56:41;2.67;;;1.40;;
51467;SDS011;37545;45.302;-122.946;2023-02-15T04:59:10;5.38;;;1.58;;
51467;SDS011;37545;45.302;-122.946;2023-02-15T05:01:39;2.45;;;1.70;;
51467;SDS011;37545;45.302;-122.946;2023-02-15T05:04:08;2.97;;;1.50;;
51467;SDS011;37545;45.302;-122.946;2023-02-15T05:06:36;5.05;;;1.17;;
51467;SDS011;37545;45.302;-122.946;2023-02-15T05:09:05;4.03;;;1.33;;
51467;SDS011;37545;45.302;-122.946;2023-02-15T05:11:34;3.13;;;1.40;;
51467;SDS011;37545;45.302;-122.946;2023-02-15T05:14:04;4.20;;;1.65;;
51467;SDS011;37545;45.302;-122.946;2023-02-15T05:16:33;4.38;;;1.73;;
51467;SDS011;37545;45.302;-122.946;2023-02-15T05:19:02;4.97;;;1.77;;
51467;SDS011;37545;45.302;-122.946;2023-02-15T05:21:31;4.35;;;2.03;;
51467;SDS011;37545;45.302;-122.946;2023-02-15T05:24:00;5.13;;;2.28;;
51467;SDS011;37545;45.302;-122.946;2023-02-15T05:26:48;7.15;;;2.58;;
51467;SDS011;37545;45.302;-122.946;2023-02-15T05:29:35;6.85;;;2.55;;
51467;SDS011;37545;45.302;-122.946;2023-02-15T05:32:04;9.75;;;2.60;;
51467;SDS011;37545;45.302;-122.946;2023-02-15T05:34:32;5.50;;;2.47;;
51467;SDS011;37545;45.302;-122.946;2023-02-15T05:37:01;7.63;;;3.13;;
51467;SDS011;37545;45.302;-122.946;2023-02-15T05:39:29;2.58;;;1.35;;
51467;SDS011;37545;45.302;-122.946;2023-02-15T05:41:58;6.63;;;1.58;;
51467;SDS011;37545;45.302;-122.946;2023-02-15T05:44:27;4.50;;;1.90;;
51467;SDS011;37545;45.302;-122.946;2023-02-15T05:46:57;11.77;;;4.75;;
51467;SDS011;37545;45.302;-122.946;2023-02-15T05:49:25;6.55;;;3.20;;
51467;SDS011;37545;45.302;-122.946;2023-02-15T05:51:54;7.57;;;3.47;;
51467;SDS011;37545;45.302;-122.946;2023-02-15T05:54:22;8.75;;;3.38;;
51467;SDS011;37545;45.302;-122.946;2023-02-15T05:56:51;9.75;;;3.53;;
51467;SDS011;37545;45.302;-122.946;2023-02-15T05:59:20;8.95;;;3.92;;
51467;SDS011;37545;45.302;-122.946;2023-02-15T06:01:49;11.98;;;3.20;;
51467;SDS011;37545;45.302;-122.946;2023-02-15T06:04:19;6.40;;;3.65;;
51467;SDS011;37545;45.302;-122.946;2023-02-15T06:06:48;8.30;;;3.15;;
51467;SDS011;37545;45.302;-122.946;2023-02-15T06:09:16;5.35;;;2.30;;
51467;SDS011;37545;45.302;-122.946;2023-02-15T06:11:45;7.20;;;2.97;;
51467;SDS011;37545;45.302;-122.946;2023-02-15T06:14:14;5.78;;;2.70;;
51467;SDS011;37545;45.302;-122.946;2023-02-15T06:16:42;13.07;;;2.65;;
51467;SDS011;37545;45.302;-122.946;2023-02-15T06:19:11;8.57;;;2.97;;
51467;SDS011;37545;45.302;-122.946;2023-02-15T06:21:41;7.57;;;2.60;;
51467;SDS011;37545;45.302;-122.946;2023-02-15T06:24:10;10.00;;;3.35;;
51467;SDS011;37545;45.302;-122.946;2023-02-15T06:26:39;8.20;;;3.05;;
51467;SDS011;37545;45.302;-122.946;2023-02-15T06:29:08;11.02;;;3.55;;
51467;SDS011;37545;45.302;-122.946;2023-02-15T06:31:36;4.32;;;2.53;;
51467;SDS011;37545;45.302;-122.946;2023-02-15T06:34:05;7.30;;;2.42;;
51467;SDS011;37545;45.302;-122.946;2023-02-15T06:36:33;12.65;;;3.72;;
51467;SDS011;37545;45.302;-122.946;2023-02-15T06:39:04;9.38;;;3.53;;
51467;SDS011;37545;45.302;-122.946;2023-02-15T06:41:32;11.68;;;4.22;;
51467;SDS011;37545;45.302;-122.946;2023-02-15T06:44:01;8.38;;;3.38;;
51467;SDS011;37545;45.302;-122.946;2023-02-15T06:46:29;12.45;;;4.15;;
51467;SDS011;37545;45.302;-122.946;2023-02-15T06:48:58;7.45;;;3.20;;
51467;SDS011;37545;45.302;-122.946;2023-02-15T06:51:27;15.40;;;6.45;;
51467;SDS011;37545;45.302;-122.946;2023-02-15T06:53:55;9.32;;;4.43;;
51467;SDS011;37545;45.302;-122.946;2023-02-15T06:56:25;13.95;;;5.18;;
51467;SDS011;37545;45.302;-122.946;2023-02-15T06:58:54;11.95;;;6.00;;
51467;SDS011;37545;45.302;-122.946;2023-02-15T07:01:23;22.98;;;7.65;;
51467;SDS011;37545;45.302;-122.946;2023-02-15T07:03:51;17.75;;;6.78;;
51467;SDS011;37545;45.302;-122.946;2023-02-15T07:06:20;20.40;;;6.82;;
51467;SDS011;37545;45.302;-122.946;2023-02-15T07:08:48;20.90;;;6.68;;
51467;SDS011;37545;45.302;-122.946;2023-02-15T07:11:17;20.50;;;4.13;;
51467;SDS011;37545;45.302;-122.946;2023-02-15T07:14:03;8.85;;;4.60;;
51467;SDS011;37545;45.302;-122.946;2023-02-15T07:16:32;7.68;;;3.28;;
51467;SDS011;37545;45.302;-122.946;2023-02-15T07:19:01;9.70;;;3.33;;
51467;SDS011;37545;45.302;-122.946;2023-02-15T07:21:30;9.93;;;3.45;;
51467;SDS011;37545;45.302;-122.946;2023-02-15T07:23:58;12.32;;;2.80;;
51467;SDS011;37545;45.302;-122.946;2023-02-15T07:26:27;10.93;;;4.00;;
51467;SDS011;37545;45.302;-122.946;2023-02-15T07:28:55;12.40;;;3.03;;
51467;SDS011;37545;45.302;-122.946;2023-02-15T07:31:26;13.10;;;3.47;;
51467;SDS011;37545;45.302;-122.946;2023-02-15T07:33:55;8.02;;;3.33;;
51467;SDS011;37545;45.302;-122.946;2023-02-15T07:36:23;17.48;;;3.88;;
51467;SDS011;37545;45.302;-122.946;2023-02-15T07:38:52;9.63;;;2.47;;
51467;SDS011;37545;45.302;-122.946;2023-02-15T07:41:20;6.25;;;2.67;;
51467;SDS011;37545;45.302;-122.946;2023-02-15T07:43:50;9.80;;;2.70;;
51467;SDS011;37545;45.302;-122.946;2023-02-15T07:46:18;6.63;;;2.38;;
51467;SDS011;37545;45.302;-122.946;2023-02-15T07:48:48;6.93;;;2.42;;
51467;SDS011;37545;45.302;-122.946;2023-02-15T07:51:17;9.13;;;2.42;;
51467;SDS011;37545;45.302;-122.946;2023-02-15T07:53:45;4.55;;;2.45;;
51467;SDS011;37545;45.302;-122.946;2023-02-15T07:56:14;9.30;;;2.53;;
51467;SDS011;37545;45.302;-122.946;2023-02-15T07:58:43;7.57;;;2.33;;
51467;SDS011;37545;45.302;-122.946;2023-02-15T08:01:18;4.15;;;1.98;;
51467;SDS011;37545;45.302;-122.946;2023-02-15T08:03:51;6.47;;;2.03;;
51467;SDS011;37545;45.302;-122.946;2023-02-15T08:06:20;4.53;;;2.25;;
51467;SDS011;37545;45.302;-122.946;2023-02-15T08:08:50;6.38;;;2.05;;
51467;SDS011;37545;45.302;-122.946;2023-02-15T08:11:19;5.15;;;2.65;;
51467;SDS011;37545;45.302;-122.946;2023-02-15T08:14:02;7.05;;;2.40;;
51467;SDS011;37545;45.302;-122.946;2023-02-15T08:16:33;12.10;;;2.83;;
51467;SDS011;37545;45.302;-122.946;2023-02-15T08:19:05;10.07;;;2.20;;
51467;SDS011;37545;45.302;-122.946;2023-02-15T08:21:35;5.43;;;1.85;;
51467;SDS011;37545;45.302;-122.946;2023-02-15T08:24:06;10.35;;;2.35;;
51467;SDS011;37545;45.302;-122.946;2023-02-15T08:26:35;6.72;;;2.35;;
51467;SDS011;37545;45.302;-122.946;2023-02-15T08:29:05;8.10;;;2.92;;
51467;SDS011;37545;45.302;-122.946;2023-02-15T08:31:35;5.38;;;2.00;;
51467;SDS011;37545;45.302;-122.946;2023-02-15T08:34:05;6.90;;;2.90;;
51467;SDS011;37545;45.302;-122.946;2023-02-15T08:36:34;4.35;;;2.05;;
51467;SDS011;37545;45.302;-122.946;2023-02-15T08:39:04;8.40;;;2.70;;
51467;SDS011;37545;45.302;-122.946;2023-02-15T08:41:33;4.50;;;2.00;;
51467;SDS011;37545;45.302;-122.946;2023-02-15T08:44:04;5.97;;;2.55;;
51467;SDS011;37545;45.302;-122.946;2023-02-15T08:46:35;6.22;;;3.63;;
51467;SDS011;37545;45.302;-122.946;2023-02-15T08:49:06;7.25;;;2.60;;
51467;SDS011;37545;45.302;-122.946;2023-02-15T08:51:36;10.45;;;3.10;;
51467;SDS011;37545;45.302;-122.946;2023-02-15T08:54:05;6.03;;;2.75;;
51467;SDS011;37545;45.302;-122.946;2023-02-15T08:56:36;5.55;;;2.92;;
51467;SDS011;37545;45.302;-122.946;2023-02-15T08:59:06;7.10;;;3.17;;
51467;SDS011;37545;45.302;-122.946;2023-02-15T09:01:38;9.05;;;3.85;;
51467;SDS011;37545;45.302;-122.946;2023-02-15T09:04:09;9.73;;;3.50;;
51467;SDS011;37545;45.302;-122.946;2023-02-15T09:06:38;11.15;;;3.38;;
51467;SDS011;37545;45.302;-122.946;2023-02-15T09:09:08;6.90;;;2.97;;
51467;SDS011;37545;45.302;-122.946;2023-02-15T09:11:38;10.80;;;3.78;;
51467;SDS011;37545;45.302;-122.946;2023-02-15T09:14:09;7.38;;;2.38;;
51467;SDS011;37545;45.302;-122.946;2023-02-15T09:16:39;8.75;;;2.72;;
51467;SDS011;37545;45.302;-122.946;2023-02-15T09:19:11;6.25;;;2.92;;
51467;SDS011;37545;45.302;-122.946;2023-02-15T09:21:40;6.32;;;2.67;;
51467;SDS011;37545;45.302;-122.946;2023-02-15T09:24:10;7.75;;;2.50;;
51467;SDS011;37545;45.302;-122.946;2023-02-15T09:26:41;3.67;;;2.08;;
51467;SDS011;37545;45.302;-122.946;2023-02-15T09:29:11;6.40;;;2.70;;
51467;SDS011;37545;45.302;-122.946;2023-02-15T09:31:40;6.72;;;2.33;;
51467;SDS011;37545;45.302;-122.946;2023-02-15T09:34:12;6.88;;;1.95;;
51467;SDS011;37545;45.302;-122.946;2023-02-15T09:36:42;4.70;;;2.40;;
51467;SDS011;37545;45.302;-122.946;2023-02-15T09:39:12;4.35;;;2.28;;
51467;SDS011;37545;45.302;-122.946;2023-02-15T09:45:07;15.02;;;2.55;;
51467;SDS011;37545;45.302;-122.946;2023-02-15T09:47:54;4.40;;;1.50;;
51467;SDS011;37545;45.302;-122.946;2023-02-15T09:50:47;4.90;;;1.98;;
51467;SDS011;37545;45.302;-122.946;2023-02-15T09:53:30;5.13;;;2.08;;
51467;SDS011;37545;45.302;-122.946;2023-02-15T09:56:16;9.70;;;2.42;;
51467;SDS011;37545;45.302;-122.946;2023-02-15T09:58:53;7.70;;;2.90;;
51467;SDS011;37545;45.302;-122.946;2023-02-15T10:01:33;4.35;;;2.72;;
51467;SDS011;37545;45.302;-122.946;2023-02-15T10:04:15;5.90;;;2.15;;
51467;SDS011;37545;45.302;-122.946;2023-02-15T10:07:03;3.70;;;1.80;;
51467;SDS011;37545;45.302;-122.946;2023-02-15T10:09:44;5.40;;;2.55;;
51467;SDS011;37545;45.302;-122.946;2023-02-15T10:12:28;8.40;;;3.20;;
51467;SDS011;37545;45.302;-122.946;2023-02-15T10:15:10;13.35;;;2.72;;
51467;SDS011;37545;45.302;-122.946;2023-02-15T10:17:55;5.55;;;3.38;;
51467;SDS011;37545;45.302;-122.946;2023-02-15T10:20:34;5.55;;;2.17;;
51467;SDS011;37545;45.302;-122.946;2023-02-15T10:23:22;5.00;;;2.55;;
51467;SDS011;37545;45.302;-122.946;2023-02-15T10:26:06;6.00;;;2.97;;
51467;SDS011;37545;45.302;-122.946;2023-02-15T10:28:41;6.47;;;2.28;;
51467;SDS011;37545;45.302;-122.946;2023-02-15T10:31:17;6.50;;;2.83;;
51467;SDS011;37545;45.302;-122.946;2023-02-15T10:33:54;5.57;;;2.92;;
51467;SDS011;37545;45.302;-122.946;2023-02-15T10:39:56;5.40;;;2.40;;
51467;SDS011;37545;45.302;-122.946;2023-02-15T10:42:34;4.65;;;2.50;;
51467;SDS011;37545;45.302;-122.946;2023-02-15T10:45:15;7.97;;;2.92;;
51467;SDS011;37545;45.302;-122.946;2023-02-15T10:47:56;6.50;;;2.35;;
51467;SDS011;37545;45.302;-122.946;2023-02-15T10:50:42;9.38;;;3.08;;
51467;SDS011;37545;45.302;-122.946;2023-02-15T10:56:16;7.53;;;2.50;;
51467;SDS011;37545;45.302;-122.946;2023-02-15T10:58:56;10.95;;;3.10;;
51467;SDS011;37545;45.302;-122.946;2023-02-15T11:01:40;9.10;;;3.47;;
51467;SDS011;37545;45.302;-122.946;2023-02-15T11:04:23;6.25;;;3.03;;
51467;SDS011;37545;45.302;-122.946;2023-02-15T11:07:08;8.32;;;2.85;;
51467;SDS011;37545;45.302;-122.946;2023-02-15T11:09:44;8.75;;;2.92;;
51467;SDS011;37545;45.302;-122.946;2023-02-15T11:12:19;11.77;;;2.85;;
51467;SDS011;37545;45.302;-122.946;2023-02-15T11:14:51;5.47;;;2.95;;
51467;SDS011;37545;45.302;-122.946;2023-02-15T11:17:26;6.80;;;2.17;;
51467;SDS011;37545;45.302;-122.946;2023-02-15T11:20:04;8.15;;;2.45;;
51467;SDS011;37545;45.302;-122.946;2023-02-15T11:22:44;10.98;;;3.55;;
51467;SDS011;37545;45.302;-122.946;2023-02-15T11:25:17;12.07;;;3.30;;
51467;SDS011;37545;45.302;-122.946;2023-02-15T11:27:59;10.75;;;2.50;;
51467;SDS011;37545;45.302;-122.946;2023-02-15T11:30:34;6.43;;;2.47;;
51467;SDS011;37545;45.302;-122.946;2023-02-15T11:33:12;8.32;;;3.05;;
51467;SDS011;37545;45.302;-122.946;2023-02-15T11:35:48;7.75;;;2.58;;
51467;SDS011;37545;45.302;-122.946;2023-02-15T11:38:20;11.15;;;2.63;;
51467;SDS011;37545;45.302;-122.946;2023-02-15T11:40:52;10.73;;;2.95;;
51467;SDS011;37545;45.302;-122.946;2023-02-15T11:43:27;8.93;;;3.63;;
51467;SDS011;37545;45.302;-122.946;2023-02-15T11:46:00;7.15;;;3.53;;
51467;SDS011;37545;45.302;-122.946;2023-02-15T11:48:29;6.57;;;2.92;;
51467;SDS011;37545;45.302;-122.946;2023-02-15T11:50:59;11.05;;;2.92;;
51467;SDS011;37545;45.302;-122.946;2023-02-15T11:53:31;8.57;;;3.78;;
51467;SDS011;37545;45.302;-122.946;2023-02-15T11:56:01;9.30;;;3.22;;
51467;SDS011;37545;45.302;-122.946;2023-02-15T11:58:36;6.35;;;2.65;;
51467;SDS011;37545;45.302;-122.946;2023-02-15T12:01:10;3.45;;;2.10;;
51467;SDS011;37545;45.302;-122.946;2023-02-15T12:03:45;7.80;;;3.17;;
51467;SDS011;37545;45.302;-122.946;2023-02-15T12:06:16;10.00;;;3.55;;
51467;SDS011;37545;45.302;-122.946;2023-02-15T12:08:51;5.38;;;2.72;;
51467;SDS011;37545;45.302;-122.946;2023-02-15T12:11:26;5.70;;;3.10;;
51467;SDS011;37545;45.302;-122.946;2023-02-15T12:14:02;5.70;;;2.65;;
51467;SDS011;37545;45.302;-122.946;2023-02-15T12:16:33;7.13;;;3.10;;
51467;SDS011;37545;45.302;-122.946;2023-02-15T12:19:13;8.65;;;2.13;;
51467;SDS011;37545;45.302;-122.946;2023-02-15T12:21:54;8.80;;;3.13;;
51467;SDS011;37545;45.302;-122.946;2023-02-15T12:24:26;7.63;;;2.58;;
51467;SDS011;37545;45.302;-122.946;2023-02-15T12:26:58;7.07;;;3.00;;
51467;SDS011;37545;45.302;-122.946;2023-02-15T12:29:34;8.70;;;2.33;;
51467;SDS011;37545;45.302;-122.946;2023-02-15T12:32:09;4.03;;;2.10;;
51467;SDS011;37545;45.302;-122.946;2023-02-15T12:34:45;9.45;;;2.53;;
51467;SDS011;37545;45.302;-122.946;2023-02-15T12:37:16;2.88;;;1.73;;
51467;SDS011;37545;45.302;-122.946;2023-02-15T12:39:54;6.72;;;1.60;;
51467;SDS011;37545;45.302;-122.946;2023-02-15T12:42:24;3.30;;;1.20;;
51467;SDS011;37545;45.302;-122.946;2023-02-15T12:44:57;4.13;;;1.80;;
51467;SDS011;37545;45.302;-122.946;2023-02-15T12:47:27;2.08;;;0.88;;
51467;SDS011;37545;45.302;-122.946;2023-02-15T12:50:13;5.40;;;1.58;;
51467;SDS011;37545;45.302;-122.946;2023-02-15T12:53:02;7.78;;;1.80;;
51467;SDS011;37545;45.302;-122.946;2023-02-15T12:55:35;4.75;;;1.48;;
51467;SDS011;37545;45.302;-122.946;2023-02-15T12:58:07;2.20;;;1.20;;
51467;SDS011;37545;45.302;-122.946;2023-02-15T13:00:45;5.25;;;1.50;;
51467;SDS011;37545;45.302;-122.946;2023-02-15T13:03:17;6.80;;;1.65;;
51467;SDS011;37545;45.302;-122.946;2023-02-15T13:05:50;3.60;;;1.65;;
51467;SDS011;37545;45.302;-122.946;2023-02-15T13:08:27;3.40;;;1.25;;
51467;SDS011;37545;45.302;-122.946;2023-02-15T13:10:58;2.50;;;1.27;;
51467;SDS011;37545;45.302;-122.946;2023-02-15T13:13:29;3.63;;;1.17;;
51467;SDS011;37545;45.302;-122.946;2023-02-15T13:16:02;1.88;;;1.10;;
51467;SDS011;37545;45.302;-122.946;2023-02-15T13:18:37;6.90;;;1.33;;
51467;SDS011;37545;45.302;-122.946;2023-02-15T13:21:10;6.65;;;2.47;;
51467;SDS011;37545;45.302;-122.946;2023-02-15T13:23:42;5.55;;;2.40;;
51467;SDS011;37545;45.302;-122.946;2023-02-15T13:26:14;8.98;;;2.60;;
51467;SDS011;37545;45.302;-122.946;2023-02-15T13:28:46;7.75;;;2.40;;
51467;SDS011;37545;45.302;-122.946;2023-02-15T13:31:20;4.07;;;2.30;;
51467;SDS011;37545;45.302;-122.946;2023-02-15T13:33:51;3.35;;;2.00;;
51467;SDS011;37545;45.302;-122.946;2023-02-15T13:36:25;8.05;;;2.33;;
51467;SDS011;37545;45.302;-122.946;2023-02-15T13:39:08;8.90;;;2.80;;
51467;SDS011;37545;45.302;-122.946;2023-02-15T13:41:47;5.03;;;2.20;;
51467;SDS011;37545;45.302;-122.946;2023-02-15T13:44:33;7.43;;;2.60;;
51467;SDS011;37545;45.302;-122.946;2023-02-15T13:47:23;7.32;;;2.65;;
51467;SDS011;37545;45.302;-122.946;2023-02-15T13:50:07;5.43;;;2.70;;
51467;SDS011;37545;45.302;-122.946;2023-02-15T13:52:49;3.00;;;1.42;;
51467;SDS011;37545;45.302;-122.946;2023-02-15T13:55:29;8.52;;;2.63;;
51467;SDS011;37545;45.302;-122.946;2023-02-15T14:01:00;5.95;;;2.95;;
51467;SDS011;37545;45.302;-122.946;2023-02-15T14:03:47;4.80;;;2.10;;
51467;SDS011;37545;45.302;-122.946;2023-02-15T14:06:43;7.20;;;2.42;;
51467;SDS011;37545;45.302;-122.946;2023-02-15T14:09:37;7.90;;;3.20;;
51467;SDS011;37545;45.302;-122.946;2023-02-15T14:12:23;9.80;;;2.67;;
51467;SDS011;37545;45.302;-122.946;2023-02-15T14:15:07;5.53;;;2.42;;
51467;SDS011;37545;45.302;-122.946;2023-02-15T14:17:48;5.85;;;2.65;;
51467;SDS011;37545;45.302;-122.946;2023-02-15T14:20:32;7.95;;;3.10;;
51467;SDS011;37545;45.302;-122.946;2023-02-15T14:23:11;10.73;;;4.65;;
51467;SDS011;37545;45.302;-122.946;2023-02-15T14:25:54;7.57;;;3.25;;
51467;SDS011;37545;45.302;-122.946;2023-02-15T14:28:28;8.32;;;1.75;;
51467;SDS011;37545;45.302;-122.946;2023-02-15T14:31:05;6.18;;;2.35;;
51467;SDS011;37545;45.302;-122.946;2023-02-15T14:33:39;5.10;;;2.05;;
51467;SDS011;37545;45.302;-122.946;2023-02-15T14:36:13;4.88;;;2.60;;
51467;SDS011;37545;45.302;-122.946;2023-02-15T14:38:56;4.15;;;2.42;;
51467;SDS011;37545;45.302;-122.946;2023-02-15T14:41:53;4.03;;;2.22;;
51467;SDS011;37545;45.302;-122.946;2023-02-15T14:44:28;5.53;;;2.35;;
51467;SDS011;37545;45.302;-122.946;2023-02-15T14:47:04;3.03;;;1.88;;
51467;SDS011;37545;45.302;-122.946;2023-02-15T14:49:38;5.03;;;2.60;;
51467;SDS011;37545;45.302;-122.946;2023-02-15T14:52:09;4.22;;;1.70;;
51467;SDS011;37545;45.302;-122.946;2023-02-15T14:54:57;2.63;;;1.42;;
51467;SDS011;37545;45.302;-122.946;2023-02-15T14:57:27;2.85;;;1.67;;
51467;SDS011;37545;45.302;-122.946;2023-02-15T14:59:59;3.38;;;2.25;;
51467;SDS011;37545;45.302;-122.946;2023-02-15T15:02:43;2.70;;;1.45;;
51467;SDS011;37545;45.302;-122.946;2023-02-15T15:05:17;4.03;;;2.40;;
51467;SDS011;37545;45.302;-122.946;2023-02-15T15:10:37;3.25;;;1.88;;